Time;durP1;ratioP1;P1;durP2;ratioP2;P2;SDS_P1;SDS_P2;PMS_P1;PMS_P2;Temp;Humidity;BMP_temperature;BMP_pressure;BME280_temperature;BME280_humidity;BME280_pressure;Samples;Min_cycle;Max_cycle;Signal;HPM_P1;HPM_P2
2022/01/18 00:00:19;;;;;;;21.33;15.02;;;;;;;0.61;86.21;96857.50;5038129;28;20230;-58
2022/01/18 00:02:45;;;;;;;19.35;14.15;;;;;;;0.63;86.53;96864.22;5052933;28;20196;-59
2022/01/18 00:05:14;;;;;;;20.27;14.30;;;;;;;0.69;86.18;96874.22;5043302;28;20083;-58
2022/01/18 00:07:44;;;;;;;20.05;14.05;;;;;;;0.40;85.73;96831.75;5038399;28;20294;-59
2022/01/18 00:10:11;;;;;;;22.60;14.65;;;;;;;0.68;86.35;96889.53;5055820;28;20032;-59
2022/01/18 00:17:54;;;;;;;20.80;14.68;;;;;;;0.71;85.96;96889.47;5037715;28;20057;-60
2022/01/18 00:20:34;;;;;;;22.70;14.48;;;;;;;0.75;86.19;96885.13;5044563;28;20044;-60
2022/01/18 00:26:24;;;;;;;22.20;14.77;;;;;;;0.66;86.13;96904.03;5046696;28;20029;-60
2022/01/18 00:28:55;;;;;;;20.35;13.50;;;;;;;0.73;85.91;96905.56;5047113;28;20092;-59
2022/01/18 00:39:06;;;;;;;20.83;14.05;;;;;;;0.39;86.29;96863.16;5031320;28;20022;-58
2022/01/18 00:41:32;;;;;;;22.20;15.07;;;;;;;0.79;86.22;96938.47;5044218;28;20064;-58
2022/01/18 00:43:57;;;;;;;20.70;15.57;;;;;;;0.73;86.32;96941.22;5042187;28;20021;-59
2022/01/18 00:46:23;;;;;;;22.35;14.88;;;;;;;0.75;86.62;96953.91;5042245;28;20267;-59
2022/01/18 00:48:51;;;;;;;20.30;13.95;;;;;;;0.67;86.79;96949.84;5041897;28;20029;-59
2022/01/18 00:51:17;;;;;;;19.55;13.88;;;;;;;0.75;86.97;96971.72;5050216;28;20032;-58
2022/01/18 00:53:45;;;;;;;21.80;16.40;;;;;;;0.75;86.92;96972.56;5037611;28;20230;-59
2022/01/18 00:59:51;;;;;;;24.77;14.63;;;;;;;0.76;87.31;96976.78;5050330;28;20160;-59
2022/01/18 01:02:17;;;;;;;26.42;17.25;;;;;;;0.79;86.84;96986.88;5045397;28;20330;-59
2022/01/18 01:04:48;;;;;;;19.80;14.18;;;;;;;0.72;86.64;96976.91;5046821;28;20303;-59
2022/01/18 01:07:23;;;;;;;24.85;15.80;;;;;;;0.82;87.06;96994.44;5050339;28;20072;-59
2022/01/18 01:09:50;;;;;;;26.20;16.48;;;;;;;0.83;87.57;96997.84;5043042;28;20045;-58
2022/01/18 01:12:19;;;;;;;22.13;16.15;;;;;;;0.80;87.80;97006.38;5041756;28;20203;-59
2022/01/18 01:14:46;;;;;;;19.98;14.27;;;;;;;0.85;87.55;97014.72;5045597;28;20025;-59
2022/01/18 01:32:12;;;;;;;23.75;15.85;;;;;;;0.86;87.94;97024.06;5048515;28;20040;-59
2022/01/18 01:36:37;;;;;;;26.10;17.05;;;;;;;0.69;87.49;97038.94;5035752;28;20017;-58
2022/01/18 01:42:02;;;;;;;25.17;16.65;;;;;;;0.37;87.37;96994.75;5046390;28;20053;-59
2022/01/18 01:44:42;;;;;;;22.73;16.42;;;;;;;0.81;87.43;97066.66;5044594;28;20029;-59
2022/01/18 01:47:10;;;;;;;24.10;16.17;;;;;;;0.85;86.89;97063.13;5047917;28;20073;-57
2022/01/18 01:49:36;;;;;;;26.50;17.38;;;;;;;0.82;86.92;97080.22;5045451;28;20325;-58
2022/01/18 01:52:10;;;;;;;23.15;16.70;;;;;;;0.69;86.83;97069.50;5046397;28;20100;-59
2022/01/18 01:54:38;;;;;;;24.35;16.02;;;;;;;0.54;86.48;97087.69;5054113;28;20238;-59
2022/01/18 01:57:04;;;;;;;22.77;15.68;;;;;;;0.46;86.54;97091.25;5048482;28;20044;-58
2022/01/18 01:59:29;;;;;;;22.58;15.05;;;;;;;0.34;87.10;97091.53;5044770;28;20041;-58
2022/01/18 02:01:55;;;;;;;21.08;15.02;;;;;;;0.14;87.59;97110.63;5055156;28;20222;-59
2022/01/18 02:04:21;;;;;;;22.05;15.45;;;;;;;0.33;87.75;97107.69;5050155;28;20136;-58
2022/01/18 02:06:46;;;;;;;20.52;15.10;;;;;;;0.11;87.44;97118.31;5031880;28;20167;-58
2022/01/18 02:09:12;;;;;;;21.48;15.02;;;;;;;0.21;87.97;97118.97;5051161;28;20033;-59
2022/01/18 02:11:38;;;;;;;22.13;14.95;;;;;;;0.24;87.84;97123.16;5046467;28;20356;-57
2022/01/18 02:14:12;;;;;;;20.77;13.80;;;;;;;0.08;87.86;97128.56;5042266;28;20096;-58
2022/01/18 02:22:07;;;;;;;17.83;12.00;;;;;;;-0.06;87.43;97141.59;5082401;28;20037;-58
2022/01/18 02:24:32;;;;;;;19.58;14.00;;;;;;;-0.02;88.07;97147.44;5057053;28;20321;-57
2022/01/18 02:26:58;;;;;;;18.30;13.43;;;;;;;0.03;88.37;97153.28;5051403;28;20036;-58
2022/01/18 02:29:24;;;;;;;18.27;12.73;;;;;;;-0.15;87.86;97149.41;5044934;28;20399;-58
2022/01/18 02:31:51;;;;;;;17.63;12.65;;;;;;;0.04;88.69;97169.38;5044141;28;20262;-58
2022/01/18 02:34:19;;;;;;;17.70;12.55;;;;;;;0.02;88.46;97169.41;5043942;28;20029;-58
2022/01/18 02:36:45;;;;;;;15.23;11.43;;;;;;;0.02;88.64;97183.84;5048339;28;20063;-58
2022/01/18 02:39:12;;;;;;;15.93;11.30;;;;;;;0.05;88.47;97197.31;5037788;28;20033;-59
2022/01/18 02:41:39;;;;;;;17.25;10.65;;;;;;;0.17;87.56;97197.09;5037532;28;20064;-58
2022/01/18 02:44:12;;;;;;;11.93;9.45;;;;;;;-0.57;87.75;97089.19;5041614;28;20345;-57
2022/01/18 02:46:41;;;;;;;14.20;10.00;;;;;;;0.21;87.95;97200.41;5050032;28;20367;-57
2022/01/18 02:49:07;;;;;;;13.48;10.02;;;;;;;0.15;87.59;97216.63;5047900;28;20041;-57
2022/01/18 02:51:34;;;;;;;13.10;9.20;;;;;;;0.13;87.71;97228.56;5044917;28;20318;-56
2022/01/18 02:54:04;;;;;;;12.90;8.55;;;;;;;0.17;87.87;97244.59;5044254;28;20035;-58
2022/01/18 02:56:31;;;;;;;12.02;8.90;;;;;;;-0.03;87.99;97228.03;5043454;28;20100;-58
2022/01/18 02:59:11;;;;;;;12.55;8.73;;;;;;;0.14;87.27;97245.50;5044112;28;20082;-58
2022/01/18 03:04:21;;;;;;;12.20;8.18;;;;;;;0.01;86.56;97248.31;5043419;28;20211;-56
2022/01/18 03:06:47;;;;;;;10.88;8.07;;;;;;;0.06;86.34;97254.13;5043270;28;20028;-57
2022/01/18 03:09:12;;;;;;;10.30;8.10;;;;;;;0.09;87.09;97259.19;5044822;28;20079;-57
2022/01/18 03:11:38;;;;;;;13.77;9.35;;;;;;;-0.02;86.62;97262.75;5056893;28;20035;-57
2022/01/18 03:14:04;;;;;;;10.63;7.85;;;;;;;0.03;86.48;97277.09;5042932;28;20096;-57
2022/01/18 03:16:30;;;;;;;10.02;7.80;;;;;;;-0.24;87.30;97277.56;5038226;28;20367;-57
2022/01/18 03:18:55;;;;;;;10.85;7.50;;;;;;;-0.23;87.25;97281.81;5058336;28;20039;-57
2022/01/18 03:21:21;;;;;;;10.65;7.72;;;;;;;-0.28;86.75;97262.41;5047791;28;20028;-57
2022/01/18 03:23:52;;;;;;;10.65;7.82;;;;;;;-0.21;86.96;97272.41;5046410;28;20053;-56
2022/01/18 03:26:19;;;;;;;10.70;7.10;;;;;;;-0.28;86.47;97291.19;5043859;28;20097;-56
2022/01/18 03:28:44;;;;;;;9.25;7.10;;;;;;;-0.23;86.54;97304.69;5042845;28;20084;-55
2022/01/18 03:31:10;;;;;;;10.13;7.47;;;;;;;-0.46;86.46;97309.31;5050236;28;20079;-57
2022/01/18 03:33:36;;;;;;;10.52;6.97;;;;;;;-0.31;87.51;97324.31;5035766;28;20036;-57
2022/01/18 03:36:02;;;;;;;9.18;6.63;;;;;;;-0.31;86.92;97334.47;5054016;28;20302;-57
2022/01/18 03:38:31;;;;;;;9.63;6.60;;;;;;;-0.38;87.23;97331.19;5049230;28;20308;-57
2022/01/18 03:41:01;;;;;;;10.57;6.80;;;;;;;-0.29;87.11;97348.00;5043403;28;20049;-57
2022/01/18 03:43:31;;;;;;;8.57;5.90;;;;;;;-0.27;86.54;97361.53;5050549;28;20060;-57
2022/01/18 03:46:03;;;;;;;9.65;5.88;;;;;;;-0.45;86.99;97356.75;5046866;28;20037;-57
2022/01/18 03:48:39;;;;;;;7.80;6.35;;;;;;;-0.35;86.57;97371.00;5029092;28;20267;-57
2022/01/18 03:51:07;;;;;;;6.63;5.07;;;;;;;-0.23;87.03;97398.78;5037221;28;20381;-57
2022/01/18 03:53:33;;;;;;;7.97;5.75;;;;;;;-0.23;86.96;97383.53;5042782;28;20029;-57
2022/01/18 03:55:59;;;;;;;7.15;5.35;;;;;;;-0.28;86.28;97390.38;5045987;28;20336;-57
2022/01/18 03:58:25;;;;;;;6.78;5.28;;;;;;;-0.30;86.51;97407.38;5041813;28;20162;-57
2022/01/18 04:00:51;;;;;;;8.15;5.30;;;;;;;-0.34;87.22;97418.44;5036470;28;20029;-57
2022/01/18 04:03:17;;;;;;;7.50;5.20;;;;;;;-0.28;86.56;97418.34;5047913;28;20103;-57
2022/01/18 04:05:43;;;;;;;6.18;4.47;;;;;;;-0.33;87.34;97420.09;5042249;28;20322;-57
2022/01/18 04:08:08;;;;;;;5.20;4.70;;;;;;;-0.26;86.32;97414.06;5057327;28;20103;-56
2022/01/18 04:10:34;;;;;;;8.82;5.50;;;;;;;-0.27;86.33;97424.25;5047655;28;20225;-57
2022/01/18 04:13:00;;;;;;;7.82;4.68;;;;;;;-0.23;86.76;97431.84;5047083;28;20048;-57
2022/01/18 04:15:26;;;;;;;5.28;4.22;;;;;;;-0.33;86.32;97430.28;5040966;28;20029;-57
2022/01/18 04:26:05;;;;;;;6.65;4.00;;;;;;;-0.59;88.19;97458.63;5049805;28;20041;-57
2022/01/18 04:28:42;;;;;;;4.55;3.83;;;;;;;-1.01;87.34;97392.22;5042137;28;20038;-57
2022/01/18 04:31:09;;;;;;;5.15;3.95;;;;;;;-0.53;87.49;97469.56;5042404;28;20033;-56
2022/01/18 04:33:36;;;;;;;6.97;4.53;;;;;;;-0.45;87.68;97479.59;5048554;28;20045;-56
2022/01/18 04:36:03;;;;;;;6.20;4.07;;;;;;;-0.40;87.64;97482.09;5046067;28;20032;-57
2022/01/18 04:38:29;;;;;;;5.55;3.90;;;;;;;-0.35;87.53;97486.25;5043360;28;20029;-57
2022/01/18 04:41:00;;;;;;;4.80;3.75;;;;;;;-0.32;87.66;97484.53;5042832;28;20400;-57
2022/01/18 04:43:42;;;;;;;5.85;3.78;;;;;;;-0.44;87.13;97488.94;5041307;28;20026;-56
2022/01/18 04:48:52;;;;;;;4.55;3.13;;;;;;;-0.51;88.72;97525.47;5052107;28;20093;-57
2022/01/18 04:51:18;;;;;;;5.53;3.65;;;;;;;-0.55;87.72;97523.81;5049017;28;20033;-57
2022/01/18 04:53:50;;;;;;;4.35;3.13;;;;;;;-0.35;87.73;97552.34;5049783;28;20036;-58
2022/01/18 04:56:18;;;;;;;4.20;3.30;;;;;;;-0.24;87.88;97551.41;5053351;28;20037;-58
2022/01/18 04:58:44;;;;;;;4.57;3.63;;;;;;;-0.34;86.58;97553.22;5046686;28;20033;-57
2022/01/18 05:01:12;;;;;;;3.42;3.13;;;;;;;-0.43;86.61;97574.50;5045477;28;20041;-57
2022/01/18 05:03:38;;;;;;;3.83;2.97;;;;;;;-0.67;87.52;97565.47;5045968;28;20025;-58
2022/01/18 05:06:10;;;;;;;5.47;3.13;;;;;;;-0.68;87.27;97573.09;5045683;28;20100;-58
2022/01/18 05:08:37;;;;;;;3.83;2.90;;;;;;;-0.54;87.38;97577.16;5045259;28;20249;-58
2022/01/18 05:11:03;;;;;;;5.15;2.58;;;;;;;-0.48;87.53;97595.78;5046785;28;20033;-57
2022/01/18 05:23:57;;;;;;;3.70;3.10;;;;;;;-0.63;87.02;97628.09;5044814;28;20049;-57
2022/01/18 05:26:24;;;;;;;4.30;2.83;;;;;;;-0.58;86.64;97636.53;5055501;28;20229;-58
2022/01/18 05:28:50;;;;;;;3.88;2.80;;;;;;;-0.73;85.63;97654.47;5050056;28;20092;-58
2022/01/18 05:31:15;;;;;;;4.03;2.92;;;;;;;-0.82;86.43;97657.09;5037913;28;20033;-55
2022/01/18 05:33:42;;;;;;;4.00;3.17;;;;;;;-0.74;86.36;97661.25;5044646;28;20021;-58
2022/01/18 05:36:09;;;;;;;3.78;2.97;;;;;;;-0.74;86.27;97671.41;5040348;28;20340;-58
2022/01/18 05:38:35;;;;;;;5.50;3.08;;;;;;;-0.78;85.27;97679.09;5036833;28;20314;-57
2022/01/18 05:41:06;;;;;;;3.90;3.08;;;;;;;-0.76;86.79;97680.75;5044258;28;20049;-57
2022/01/18 05:43:32;;;;;;;2.92;2.60;;;;;;;-0.73;86.20;97690.91;5044733;28;20032;-57
2022/01/18 05:45:58;;;;;;;5.65;3.22;;;;;;;-0.97;86.40;97696.16;5051132;28;20045;-57
2022/01/18 05:48:24;;;;;;;4.13;3.25;;;;;;;-0.78;86.47;97704.50;5031670;28;20026;-57
2022/01/18 05:50:51;;;;;;;4.32;3.47;;;;;;;-0.81;85.65;97701.97;5043158;28;20040;-57
2022/01/18 05:53:17;;;;;;;4.45;3.25;;;;;;;-0.82;85.59;97713.00;5050400;28;20060;-58
2022/01/18 05:55:42;;;;;;;4.05;3.10;;;;;;;-0.87;85.66;97720.63;5044837;28;20042;-58
2022/01/18 05:58:08;;;;;;;8.60;2.90;;;;;;;-0.83;85.02;97724.84;5045654;28;20029;-57
2022/01/18 06:00:34;;;;;;;4.13;2.83;;;;;;;-0.95;83.57;97733.41;5047545;28;20033;-58
2022/01/18 06:03:02;;;;;;;2.20;2.00;;;;;;;-0.94;84.36;97740.19;5044289;28;20021;-58
2022/01/18 06:08:13;;;;;;;2.80;2.45;;;;;;;-1.05;83.50;97752.94;5044721;28;20045;-57
2022/01/18 06:10:40;;;;;;;4.28;2.55;;;;;;;-1.20;84.42;97757.28;5048755;28;20278;-57
2022/01/18 06:13:07;;;;;;;3.70;2.80;;;;;;;-1.29;85.48;97761.56;5059657;28;20042;-57
2022/01/18 06:15:34;;;;;;;4.50;2.75;;;;;;;-1.31;84.61;97767.47;5054286;28;20200;-58
2022/01/18 06:18:00;;;;;;;3.38;2.95;;;;;;;-1.18;85.03;97774.19;5048813;28;20033;-58
2022/01/18 06:20:26;;;;;;;2.55;2.35;;;;;;;-1.05;83.72;97783.44;5044993;28;20041;-58
2022/01/18 06:22:51;;;;;;;4.00;3.00;;;;;;;-1.13;84.75;97780.09;5054003;28;20055;-57
2022/01/18 06:25:19;;;;;;;4.53;2.30;;;;;;;-1.26;83.41;97814.84;5047009;28;20036;-56
2022/01/18 06:27:45;;;;;;;4.43;2.45;;;;;;;-1.23;83.16;97808.94;5046331;28;20375;-57
2022/01/18 06:30:12;;;;;;;2.33;2.13;;;;;;;-1.24;82.93;97815.72;5045418;28;20037;-57
2022/01/18 06:32:39;;;;;;;3.55;2.50;;;;;;;-1.23;83.24;97809.78;5045358;28;20218;-57
2022/01/18 06:35:06;;;;;;;3.90;2.38;;;;;;;-1.56;82.53;97816.66;5045065;28;20025;-57
2022/01/18 06:37:32;;;;;;;2.53;2.25;;;;;;;-1.49;83.87;97816.66;5044358;28;20288;-57
2022/01/18 06:40:00;;;;;;;3.50;2.60;;;;;;;-1.49;83.64;97820.03;5049820;28;20250;-58
2022/01/18 06:42:26;;;;;;;3.63;2.53;;;;;;;-1.48;83.44;97831.03;5050064;28;20100;-57
2022/01/18 06:44:52;;;;;;;2.63;2.15;;;;;;;-1.42;83.04;97839.47;5045856;28;20036;-57
2022/01/18 06:47:18;;;;;;;3.08;2.08;;;;;;;-1.59;83.43;97843.75;5052521;28;20107;-57
2022/01/18 06:49:44;;;;;;;3.63;2.35;;;;;;;-1.73;82.19;97859.00;5046799;28;20025;-57
2022/01/18 06:52:09;;;;;;;3.35;2.50;;;;;;;-1.54;83.12;97875.03;5050463;28;20370;-57
2022/01/18 06:54:35;;;;;;;2.70;2.33;;;;;;;-1.42;83.56;97866.56;5052384;28;20075;-56
2022/01/18 06:57:01;;;;;;;10.30;4.20;;;;;;;-1.51;82.73;97874.19;5038904;28;20025;-56
2022/01/18 06:59:27;;;;;;;3.95;2.72;;;;;;;-1.51;82.07;97889.41;5043599;28;20033;-57
2022/01/18 07:01:52;;;;;;;3.58;2.50;;;;;;;-1.42;82.42;97889.41;5053522;28;20385;-57
2022/01/18 07:04:18;;;;;;;7.20;3.00;;;;;;;-1.48;82.22;97890.25;5050623;28;20025;-57
2022/01/18 07:06:45;;;;;;;4.05;2.40;;;;;;;-1.70;81.93;97897.06;5043518;28;20029;-57
2022/01/18 07:09:11;;;;;;;4.43;2.25;;;;;;;-1.68;81.67;97890.31;5055883;28;20118;-56
2022/01/18 07:11:37;;;;;;;4.63;3.05;;;;;;;-1.59;82.69;97902.13;5051074;28;20112;-56
2022/01/18 07:14:03;;;;;;;7.93;5.45;;;;;;;-1.60;82.49;97920.75;5043788;28;20025;-58
2022/01/18 07:16:28;;;;;;;2.38;2.05;;;;;;;-1.82;81.88;97915.69;5049642;28;20217;-56
2022/01/18 07:18:54;;;;;;;3.28;2.25;;;;;;;-1.74;82.27;97920.75;5053982;28;20025;-56
2022/01/18 07:21:19;;;;;;;5.60;2.92;;;;;;;-1.60;81.84;97929.19;5045810;28;20025;-58
2022/01/18 07:23:45;;;;;;;3.10;1.88;;;;;;;-1.78;81.39;97950.38;5042961;28;20079;-57
2022/01/18 07:26:11;;;;;;;2.92;2.50;;;;;;;-1.77;82.95;97944.47;5055197;28;20044;-58
2022/01/18 07:28:36;;;;;;;3.97;2.53;;;;;;;-1.80;81.89;97954.56;5045126;28;20033;-57
2022/01/18 07:31:02;;;;;;;2.42;2.10;;;;;;;-1.82;82.20;97950.38;5043212;28;20033;-58
2022/01/18 07:33:28;;;;;;;3.63;2.40;;;;;;;-1.73;82.21;97965.59;5048765;28;20187;-57
2022/01/18 07:35:53;;;;;;;10.57;6.22;;;;;;;-1.56;82.37;97953.72;5048467;28;20041;-58
2022/01/18 07:38:19;;;;;;;4.15;2.95;;;;;;;-1.42;81.79;97974.00;5044131;28;20047;-57
2022/01/18 07:40:46;;;;;;;6.25;3.47;;;;;;;-1.80;81.41;97913.16;5048995;28;20064;-57
2022/01/18 07:43:16;;;;;;;2.50;2.20;;;;;;;-1.60;80.50;97990.09;5046721;28;20095;-58
2022/01/18 07:45:47;;;;;;;3.70;2.50;;;;;;;-1.57;80.79;97992.66;5044655;28;20021;-58
2022/01/18 07:48:12;;;;;;;3.55;2.70;;;;;;;-1.81;81.69;97997.72;5043340;28;20036;-57
2022/01/18 07:50:39;;;;;;;3.47;2.53;;;;;;;-1.83;80.82;98007.84;5075145;28;20029;-57
2022/01/18 07:53:05;;;;;;;7.00;3.95;;;;;;;-1.74;80.73;98009.56;5037519;28;20097;-57
2022/01/18 07:55:31;;;;;;;5.35;2.92;;;;;;;-1.52;81.16;98024.81;5042122;28;20257;-56
2022/01/18 07:57:58;;;;;;;5.28;2.78;;;;;;;-1.82;80.68;98022.25;5053271;28;20018;-56
2022/01/18 08:00:24;;;;;;;3.28;2.25;;;;;;;-2.00;81.63;98034.91;5048181;28;20041;-57
2022/01/18 08:02:50;;;;;;;2.80;2.10;;;;;;;-1.94;80.73;98042.50;5053240;28;20265;-58
2022/01/18 08:05:16;;;;;;;4.55;2.30;;;;;;;-1.85;81.66;98056.91;5047470;28;20033;-58
2022/01/18 08:07:42;;;;;;;2.33;2.13;;;;;;;-1.85;79.88;98078.06;5042340;28;20053;-57
2022/01/18 08:10:10;;;;;;;6.18;2.40;;;;;;;-2.01;78.80;98064.50;5046150;28;20080;-57
2022/01/18 08:12:36;;;;;;;4.43;3.10;;;;;;;-2.30;79.12;98092.28;5056050;28;20321;-58
2022/01/18 08:15:12;;;;;;;7.55;2.70;;;;;;;-2.14;78.41;98090.66;5050436;28;20045;-58
2022/01/18 08:17:38;;;;;;;5.78;3.05;;;;;;;-2.20;78.65;98096.53;5042515;28;20057;-58
2022/01/18 08:20:04;;;;;;;5.45;2.70;;;;;;;-2.29;77.42;98087.22;5055664;28;20032;-58
2022/01/18 08:22:30;;;;;;;4.82;2.97;;;;;;;-2.24;76.86;98104.16;5057140;28;20132;-58
2022/01/18 08:24:55;;;;;;;6.30;3.53;;;;;;;-2.35;75.87;98106.63;5049039;28;20025;-58
2022/01/18 08:27:21;;;;;;;6.57;2.63;;;;;;;-2.29;76.41;98116.81;5058552;28;20033;-59
2022/01/18 08:29:47;;;;;;;4.18;2.53;;;;;;;-2.40;76.29;98121.81;5054107;28;20033;-58
2022/01/18 08:32:12;;;;;;;4.00;2.90;;;;;;;-2.24;76.24;98125.25;5046144;28;20030;-58
2022/01/18 08:34:38;;;;;;;5.13;2.75;;;;;;;-2.18;77.10;98137.13;5040011;28;20302;-58
2022/01/18 08:37:05;;;;;;;4.22;2.63;;;;;;;-2.92;75.97;98083.50;5049134;28;20056;-58
2022/01/18 08:39:31;;;;;;;4.85;3.08;;;;;;;-2.33;77.46;98146.34;5049814;28;20048;-58
2022/01/18 08:41:56;;;;;;;3.80;2.88;;;;;;;-2.34;77.22;98152.25;5047038;28;20038;-59
2022/01/18 08:44:22;;;;;;;5.30;2.63;;;;;;;-2.53;77.48;98099.78;5045059;28;20101;-58
2022/01/18 08:46:48;;;;;;;4.10;2.65;;;;;;;-2.17;76.71;98157.41;5052595;28;20025;-58
2022/01/18 08:49:14;;;;;;;7.80;2.13;;;;;;;-2.35;75.46;98173.41;5061498;28;20049;-58
2022/01/18 08:51:40;;;;;;;3.05;2.25;;;;;;;-2.24;75.46;98172.59;5054355;28;20029;-57
2022/01/18 08:54:07;;;;;;;1.98;1.58;;;;;;;-2.59;73.59;98181.69;5033637;28;20025;-57
2022/01/18 08:56:32;;;;;;;3.10;1.50;;;;;;;-2.52;73.66;98180.03;5046517;28;20071;-58
2022/01/18 08:58:58;;;;;;;2.13;1.67;;;;;;;-2.61;72.69;98189.28;5051393;28;20029;-59
2022/01/18 09:01:24;;;;;;;2.15;1.70;;;;;;;-2.44;74.35;98194.47;5055394;28;20340;-58
2022/01/18 09:03:52;;;;;;;2.40;1.80;;;;;;;-2.50;74.79;98204.53;5037673;28;20029;-58
2022/01/18 09:06:18;;;;;;;3.58;1.77;;;;;;;-2.54;75.35;98209.59;5075242;28;20033;-58
2022/01/18 09:08:54;;;;;;;3.00;1.98;;;;;;;-2.34;74.45;98223.22;5057052;28;20025;-58
2022/01/18 09:11:20;;;;;;;2.80;2.17;;;;;;;-2.37;74.53;98230.81;5046812;28;20029;-57
2022/01/18 09:13:45;;;;;;;3.42;2.15;;;;;;;-2.47;74.29;98236.66;5045153;28;20039;-58
2022/01/18 09:16:11;;;;;;;4.63;1.92;;;;;;;-2.27;73.92;98235.13;5056087;28;20349;-58
2022/01/18 09:18:37;;;;;;;17.20;8.20;;;;;;;-2.21;75.53;98231.75;5048402;28;20031;-57
2022/01/18 09:21:03;;;;;;;3.85;1.90;;;;;;;-2.21;72.67;98238.53;5043822;28;20049;-56
2022/01/18 09:23:29;;;;;;;2.53;1.77;;;;;;;-2.41;73.11;98236.69;5051837;28;20087;-56
2022/01/18 09:25:54;;;;;;;2.97;1.65;;;;;;;-2.54;73.15;98252.66;5052034;28;20213;-56
2022/01/18 09:28:20;;;;;;;2.83;1.80;;;;;;;-2.58;72.03;98258.56;5046111;28;20037;-55
2022/01/18 09:30:45;;;;;;;3.63;1.85;;;;;;;-2.49;73.36;98277.22;5057720;28;20151;-55
2022/01/18 09:33:11;;;;;;;1.75;1.60;;;;;;;-2.69;72.28;98281.28;5052752;28;20029;-56
2022/01/18 09:35:38;;;;;;;2.63;1.75;;;;;;;-2.56;74.15;98284.78;5047639;28;20030;-56
2022/01/18 09:38:05;;;;;;;2.38;1.80;;;;;;;-2.68;72.74;98295.63;5058275;28;20061;-56
2022/01/18 09:40:33;;;;;;;1.80;1.70;;;;;;;-2.60;73.56;98292.31;5043954;28;20067;-55
2022/01/18 09:43:00;;;;;;;2.25;2.00;;;;;;;-2.40;72.95;98296.72;5044839;28;20213;-55
2022/01/18 09:45:29;;;;;;;3.97;2.58;;;;;;;-2.64;73.15;98288.09;5034510;28;20069;-56
2022/01/18 09:47:57;;;;;;;5.68;2.50;;;;;;;-2.46;74.80;98339.75;5050806;28;20096;-56
2022/01/18 09:50:55;;;;;;;3.28;1.90;;;;;;;-2.93;72.08;98244.75;5046002;28;20089;-57
2022/01/18 09:53:36;;;;;;;2.63;1.90;;;;;;;-2.60;72.38;98334.56;5034702;28;20061;-57
2022/01/18 09:56:02;;;;;;;3.80;1.80;;;;;;;-2.52;72.83;98347.28;5040257;28;20249;-56
2022/01/18 09:58:28;;;;;;;3.35;1.77;;;;;;;-2.65;71.94;98339.59;5046670;28;20133;-56
2022/01/18 10:00:55;;;;;;;2.22;1.83;;;;;;;-2.42;72.61;98349.09;5048377;28;20032;-55
2022/01/18 10:03:37;;;;;;;4.07;2.17;;;;;;;-2.81;70.34;98351.25;5054321;28;20280;-56
2022/01/18 10:06:05;;;;;;;2.53;1.85;;;;;;;-2.62;72.26;98364.13;5046060;28;20048;-56
2022/01/18 10:08:30;;;;;;;3.30;2.00;;;;;;;-2.55;71.06;98377.69;5043666;28;20103;-56
2022/01/18 10:10:59;;;;;;;2.47;2.03;;;;;;;-2.56;72.25;98394.56;5055543;28;20377;-54
2022/01/18 10:13:31;;;;;;;3.17;2.47;;;;;;;-2.95;72.51;98328.31;5052674;28;20062;-54
2022/01/18 10:16:08;;;;;;;2.85;2.22;;;;;;;-2.50;71.88;98396.31;5045805;28;20040;-55
2022/01/18 10:18:48;;;;;;;2.75;2.10;;;;;;;-2.62;72.39;98399.59;5056993;28;20043;-55
2022/01/18 10:21:40;;;;;;;4.43;2.90;;;;;;;-2.44;72.82;98420.06;5047579;28;20310;-55
2022/01/18 10:24:26;;;;;;;2.65;2.17;;;;;;;-3.08;71.07;98334.06;5045042;28;20065;-55
2022/01/18 10:26:56;;;;;;;2.40;2.20;;;;;;;-2.93;72.19;98351.13;5039437;28;20290;-55
2022/01/18 10:29:33;;;;;;;2.30;2.10;;;;;;;-2.64;72.40;98419.84;5051059;28;20097;-54
2022/01/18 10:32:08;;;;;;;2.67;1.95;;;;;;;-2.80;72.00;98428.09;5044832;28;20033;-55
2022/01/18 10:37:05;;;;;;;3.28;2.42;;;;;;;-2.71;70.55;98448.44;5041220;28;20109;-54
2022/01/18 10:39:37;;;;;;;3.75;2.30;;;;;;;-2.69;70.83;98476.38;5045169;28;20033;-54
2022/01/18 10:42:29;;;;;;;2.05;1.85;;;;;;;-2.75;70.95;98456.00;5051587;28;20033;-54
2022/01/18 10:45:26;;;;;;;2.92;1.80;;;;;;;-2.55;72.09;98462.19;5046147;28;20025;-54
2022/01/18 10:48:03;;;;;;;2.67;1.85;;;;;;;-2.81;69.41;98429.78;5039682;28;20091;-54
2022/01/18 10:50:34;;;;;;;2.70;1.80;;;;;;;-3.41;68.80;98405.41;5054993;28;20099;-55
2022/01/18 10:53:18;;;;;;;2.67;2.05;;;;;;;-2.80;69.50;98474.53;5049797;28;20029;-55
2022/01/18 10:55:46;;;;;;;3.97;2.03;;;;;;;-2.56;70.13;98503.53;5043646;28;20061;-54
2022/01/18 10:58:18;;;;;;;3.10;1.98;;;;;;;-2.95;67.98;98462.53;5043856;28;20041;-54
2022/01/18 11:00:44;;;;;;;2.70;1.98;;;;;;;-2.69;69.57;98482.28;5042667;28;20316;-55
2022/01/18 11:03:10;;;;;;;2.78;2.00;;;;;;;-2.61;69.65;98492.50;5042493;28;20054;-54
2022/01/18 11:05:39;;;;;;;3.13;2.20;;;;;;;-3.08;69.69;98437.88;5042003;28;20306;-53
2022/01/18 11:08:06;;;;;;;3.20;2.10;;;;;;;-2.83;68.93;98502.38;5042586;28;20021;-55
2022/01/18 11:10:35;;;;;;;2.38;2.05;;;;;;;-3.03;68.05;98493.66;5042125;28;20037;-54
2022/01/18 11:13:18;;;;;;;3.38;1.80;;;;;;;-3.46;68.70;98450.88;5025698;28;20033;-54
2022/01/18 11:15:50;;;;;;;3.15;1.70;;;;;;;-3.16;68.86;98530.63;5036802;28;20021;-53
2022/01/18 11:18:29;;;;;;;2.05;1.80;;;;;;;-2.93;70.67;98525.03;5044752;28;20369;-55
2022/01/18 11:20:56;;;;;;;1.98;1.77;;;;;;;-2.84;70.64;98537.81;5065821;28;20049;-53
2022/01/18 11:23:24;;;;;;;3.90;2.65;;;;;;;-2.75;70.72;98568.34;5045820;28;20044;-55
2022/01/18 11:25:51;;;;;;;3.22;2.60;;;;;;;-2.71;70.22;98562.47;5041664;28;20213;-54
2022/01/18 11:28:17;;;;;;;5.88;2.30;;;;;;;-3.34;69.04;98559.03;5045811;28;20037;-55
2022/01/18 11:30:47;;;;;;;2.85;2.10;;;;;;;-3.60;70.03;98500.44;5050157;28;20029;-55
2022/01/18 11:33:18;;;;;;;3.83;1.88;;;;;;;-3.49;67.95;98579.91;5035125;28;20025;-54
2022/01/18 11:35:58;;;;;;;2.15;1.90;;;;;;;-3.55;67.34;98590.75;5041798;28;20022;-54
2022/01/18 11:38:42;;;;;;;2.38;1.95;;;;;;;-3.84;69.30;98516.91;5042389;28;20029;-55
2022/01/18 11:41:24;;;;;;;2.22;2.03;;;;;;;-3.31;68.38;98590.31;5041550;28;20053;-55
2022/01/18 11:43:51;;;;;;;3.97;2.17;;;;;;;-3.27;69.09;98615.69;5039743;28;20033;-56
2022/01/18 11:46:32;;;;;;;2.47;1.80;;;;;;;-3.55;67.71;98623.66;5039053;28;20272;-55
2022/01/18 11:49:04;;;;;;;3.28;2.08;;;;;;;-3.63;67.76;98637.84;5044558;28;20028;-54
2022/01/18 11:52:11;;;;;;;1.70;1.60;;;;;;;-4.09;67.44;98577.16;5043066;28;20044;-53
2022/01/18 11:57:15;;;;;;;2.10;1.90;;;;;;;-3.66;68.55;98643.69;5042146;28;20068;-55
2022/01/18 11:59:41;;;;;;;4.35;2.30;;;;;;;-3.48;69.36;98649.91;5039263;28;20307;-55
2022/01/18 12:02:07;;;;;;;3.92;2.28;;;;;;;-3.38;69.69;98661.03;5035813;28;20025;-54
2022/01/18 12:07:09;;;;;;;2.58;2.10;;;;;;;-3.51;69.13;98637.19;5039774;28;20025;-54
2022/01/18 12:09:40;;;;;;;4.32;2.40;;;;;;;-3.70;69.10;98623.38;5040738;28;20052;-54
2022/01/18 12:12:41;;;;;;;3.15;2.33;;;;;;;-3.24;70.98;98695.03;5031063;28;20041;-54
2022/01/18 12:15:15;;;;;;;2.67;2.47;;;;;;;-3.32;71.89;98710.09;5034364;28;20033;-54
2022/01/18 12:18:01;;;;;;;6.95;3.28;;;;;;;-3.10;71.64;98691.91;5038157;28;20034;-55
2022/01/18 12:20:46;;;;;;;5.78;2.83;;;;;;;-3.27;71.24;98700.06;5039384;28;20058;-55
2022/01/18 12:23:17;;;;;;;5.80;2.50;;;;;;;-3.13;71.67;98707.91;5037704;28;20037;-54
2022/01/18 12:37:07;;;;;;;4.38;2.75;;;;;;;-3.21;70.40;98732.22;5035357;28;20045;-55
2022/01/18 12:45:02;;;;;;;2.30;2.10;;;;;;;-3.20;70.93;98761.78;5034694;28;20053;-55
2022/01/18 12:47:30;;;;;;;3.70;2.75;;;;;;;-3.23;71.56;98776.94;5039735;28;20034;-54
2022/01/18 12:49:55;;;;;;;3.13;2.80;;;;;;;-3.14;72.81;98765.28;5041240;28;20033;-56
2022/01/18 12:52:21;;;;;;;2.85;2.35;;;;;;;-3.28;72.09;98769.22;5033726;28;20094;-55
2022/01/18 12:54:48;;;;;;;4.20;2.45;;;;;;;-3.28;72.46;98786.09;5040740;28;20033;-55
2022/01/18 12:57:22;;;;;;;4.38;2.50;;;;;;;-3.72;72.98;98706.84;5041005;28;20029;-56
2022/01/18 13:00:14;;;;;;;4.43;3.00;;;;;;;-3.09;73.35;98799.94;5032688;28;20044;-55
2022/01/18 13:02:46;;;;;;;4.97;3.13;;;;;;;-3.14;73.80;98802.41;5032491;28;20033;-54
2022/01/18 13:05:12;;;;;;;3.42;2.75;;;;;;;-3.10;74.53;98814.31;5036067;28;20191;-56
2022/01/18 13:07:51;;;;;;;6.22;2.80;;;;;;;-3.39;74.36;98756.38;5036543;28;20025;-54
2022/01/18 13:10:17;;;;;;;3.90;2.88;;;;;;;-3.13;73.74;98811.72;5067214;28;20033;-55
2022/01/18 13:12:44;;;;;;;5.05;3.15;;;;;;;-3.16;74.13;98816.72;5042657;28;20026;-54
2022/01/18 13:15:13;;;;;;;5.15;2.95;;;;;;;-3.21;73.40;98826.75;5043690;28;20040;-55